createdAt,value
2023-04-19T00:00:28.510Z,9.50
2023-04-19T00:02:56.792Z,9.50
2023-04-19T00:05:26.330Z,9.60
2023-04-19T00:07:54.446Z,9.40
2023-04-19T00:10:22.644Z,9.50
2023-04-19T00:12:50.864Z,9.40
2023-04-19T00:15:19.173Z,9.40
2023-04-19T00:17:48.934Z,9.40
2023-04-19T00:20:17.114Z,9.40
2023-04-19T00:22:45.215Z,9.40
2023-04-19T00:25:13.474Z,9.40
2023-04-19T00:27:41.706Z,9.40
2023-04-19T00:30:10.499Z,9.30
2023-04-19T00:32:38.673Z,9.40
2023-04-19T00:35:09.043Z,9.40
2023-04-19T00:37:37.107Z,9.30
2023-04-19T00:40:06.184Z,9.30
2023-04-19T00:42:34.509Z,9.30
2023-04-19T00:45:02.558Z,9.20
2023-04-19T00:47:31.454Z,9.20
2023-04-19T00:50:00.113Z,9.10
2023-04-19T00:52:29.869Z,9.10
2023-04-19T00:55:00.404Z,9.20
2023-04-19T00:57:29.598Z,9.20
2023-04-19T00:59:58.922Z,9.10
2023-04-19T01:02:28.741Z,9.10
2023-04-19T01:04:57.806Z,9.10
2023-04-19T01:07:26.016Z,9.20
2023-04-19T01:09:55.624Z,9.20
2023-04-19T01:12:24.093Z,9.20
2023-04-19T01:14:52.112Z,9.10
2023-04-19T01:17:20.811Z,9.20
2023-04-19T01:19:48.900Z,9.10
2023-04-19T01:22:21.740Z,9.20
2023-04-19T01:24:49.885Z,9.10
2023-04-19T01:27:19.950Z,9.10
2023-04-19T01:29:48.131Z,9.00
2023-04-19T01:32:17.328Z,9.10
2023-04-19T01:34:45.441Z,9.00
2023-04-19T01:37:13.614Z,9.00
2023-04-19T01:39:43.046Z,9.00
2023-04-19T01:42:11.144Z,9.10
2023-04-19T01:44:39.325Z,9.10
2023-04-19T01:47:07.419Z,9.00
2023-04-19T01:49:35.481Z,9.00
2023-04-19T01:52:03.744Z,9.00
2023-04-19T01:54:31.802Z,9.10
2023-04-19T01:57:01.485Z,9.10
2023-04-19T01:59:29.743Z,9.10
2023-04-19T02:01:58.114Z,9.10
2023-04-19T02:04:26.418Z,9.10
2023-04-19T02:06:54.646Z,9.10
2023-04-19T02:09:22.704Z,8.90
2023-04-19T02:11:53.033Z,8.90
2023-04-19T02:16:56.625Z,8.90
2023-04-19T02:19:26.685Z,9.00
2023-04-19T02:21:59.788Z,9.00
2023-04-19T02:24:29.162Z,9.10
2023-04-19T02:26:59.941Z,9.00
2023-04-19T02:29:33.550Z,9.00
2023-04-19T02:32:06.378Z,9.00
2023-04-19T02:34:38.955Z,9.00
2023-04-19T02:37:08.632Z,9.00
2023-04-19T02:40:15.244Z,9.00
2023-04-19T02:42:45.633Z,9.00
2023-04-19T02:45:17.280Z,9.00
2023-04-19T02:47:46.772Z,9.00
2023-04-19T02:50:18.288Z,9.00
2023-04-19T02:52:46.424Z,9.00
2023-04-19T02:55:14.526Z,8.90
2023-04-19T02:57:44.217Z,9.00
2023-04-19T03:00:20.885Z,8.90
2023-04-19T03:02:50.619Z,9.00
2023-04-19T03:05:18.932Z,9.00
2023-04-19T03:07:50.783Z,8.90
2023-04-19T03:10:20.247Z,9.00
2023-04-19T03:12:49.730Z,8.90
2023-04-19T03:15:18.059Z,8.80
2023-04-19T03:17:46.276Z,8.70
2023-04-19T03:20:19.193Z,8.80
2023-04-19T03:22:49.364Z,8.70
2023-04-19T03:25:26.138Z,8.70
2023-04-19T03:28:06.130Z,8.80
2023-04-19T03:30:35.990Z,8.80
2023-04-19T03:33:13.030Z,8.70
2023-04-19T03:35:42.600Z,8.70
2023-04-19T03:38:10.831Z,8.80
2023-04-19T03:40:39.198Z,8.80
2023-04-19T03:43:08.893Z,8.70
2023-04-19T03:45:37.012Z,8.60
2023-04-19T03:48:05.212Z,8.60
2023-04-19T03:50:33.417Z,8.60
2023-04-19T03:53:05.750Z,8.60
2023-04-19T03:55:35.047Z,8.60
2023-04-19T03:58:04.579Z,8.70
2023-04-19T04:00:40.178Z,8.60
2023-04-19T04:03:09.287Z,8.60
2023-04-19T04:05:41.518Z,8.50
2023-04-19T04:08:15.032Z,8.50
2023-04-19T04:10:43.275Z,8.50
2023-04-19T04:13:11.447Z,8.50
2023-04-19T04:15:39.563Z,8.30
2023-04-19T04:18:09.092Z,8.40
2023-04-19T04:20:37.469Z,8.30
2023-04-19T04:23:14.383Z,8.40
2023-04-19T04:25:43.010Z,8.40
2023-04-19T04:28:11.157Z,8.40
2023-04-19T04:30:40.706Z,8.30
2023-04-19T04:33:12.149Z,8.40
2023-04-19T04:35:44.416Z,8.40
2023-04-19T04:38:24.674Z,8.40
2023-04-19T04:40:59.483Z,8.40
2023-04-19T04:43:29.304Z,8.40
2023-04-19T04:46:05.500Z,8.40
2023-04-19T04:48:34.150Z,8.50
2023-04-19T04:51:03.731Z,8.40
2023-04-19T04:53:34.467Z,8.40
2023-04-19T04:56:03.211Z,8.40
2023-04-19T04:58:31.684Z,8.30
2023-04-19T05:01:00.860Z,8.30
2023-04-19T05:03:29.004Z,8.30
2023-04-19T05:05:57.739Z,8.40
2023-04-19T05:08:31.909Z,8.30
2023-04-19T05:11:02.440Z,8.30
2023-04-19T05:13:30.741Z,8.40
2023-04-19T05:16:06.339Z,8.30
2023-04-19T05:18:38.372Z,8.30
2023-04-19T05:21:07.206Z,8.30
2023-04-19T05:23:36.846Z,8.30
2023-04-19T05:26:07.414Z,8.30
2023-04-19T05:28:42.802Z,8.20
2023-04-19T05:31:40.167Z,8.20
2023-04-19T05:34:11.070Z,8.30
2023-04-19T05:36:39.116Z,8.20
2023-04-19T05:39:07.250Z,8.10
2023-04-19T05:41:41.031Z,8.10
2023-04-19T05:44:35.035Z,8.20
2023-04-19T05:47:04.683Z,8.10
2023-04-19T05:49:32.976Z,8.20
2023-04-19T05:52:03.620Z,8.20
2023-04-19T05:54:35.854Z,8.40
2023-04-19T05:57:13.167Z,8.30
2023-04-19T05:59:41.433Z,8.30
2023-04-19T06:02:35.620Z,8.20
2023-04-19T06:05:09.875Z,8.30
2023-04-19T06:07:43.198Z,8.30
2023-04-19T06:10:15.316Z,8.40
2023-04-19T06:12:45.066Z,8.30
2023-04-19T06:15:14.479Z,8.50
2023-04-19T06:17:43.290Z,8.50
2023-04-19T06:20:12.472Z,8.60
2023-04-19T06:22:44.258Z,8.60
2023-04-19T06:25:12.479Z,8.60
2023-04-19T06:27:42.780Z,8.70
2023-04-19T06:30:13.719Z,8.90
2023-04-19T06:32:46.101Z,8.90
2023-04-19T06:35:20.704Z,8.80
2023-04-19T06:37:51.531Z,8.80
2023-04-19T06:40:24.950Z,8.90
2023-04-19T06:42:53.962Z,9.00
2023-04-19T06:45:24.967Z,9.10
2023-04-19T06:48:33.044Z,8.90
2023-04-19T06:51:14.527Z,9.20
2023-04-19T06:53:44.786Z,9.30
2023-04-19T06:56:15.991Z,9.20
2023-04-19T06:58:44.578Z,9.30
2023-04-19T07:01:14.168Z,9.40
2023-04-19T07:03:43.266Z,9.60
2023-04-19T07:06:18.545Z,9.70
2023-04-19T07:08:50.263Z,10.20
2023-04-19T07:11:20.330Z,10.80
2023-04-19T07:13:59.870Z,10.80
2023-04-19T07:16:29.910Z,9.90
2023-04-19T07:18:58.902Z,9.90
2023-04-19T07:21:33.130Z,11.30
2023-04-19T07:24:01.522Z,10.90
2023-04-19T07:26:32.486Z,12.60
2023-04-19T07:29:01.157Z,12.10
2023-04-19T07:31:30.714Z,11.70
2023-04-19T07:33:58.917Z,10.60
2023-04-19T07:36:27.341Z,9.40
2023-04-19T07:38:55.791Z,9.20
2023-04-19T07:41:23.867Z,9.10
2023-04-19T07:44:00.543Z,9.20
2023-04-19T07:47:27.190Z,9.10
2023-04-19T07:49:59.112Z,8.80
2023-04-19T07:52:27.344Z,9.00
2023-04-19T07:54:55.439Z,8.60
2023-04-19T07:57:23.625Z,8.50
2023-04-19T07:59:51.725Z,8.70
2023-04-19T08:02:26.699Z,8.70
2023-04-19T08:04:56.160Z,9.00
2023-04-19T08:07:26.300Z,9.30
2023-04-19T08:09:54.665Z,10.20
2023-04-19T08:12:36.465Z,11.40
2023-04-19T08:15:37.177Z,13.30
2023-04-19T08:18:02.203Z,12.00
2023-04-19T08:20:37.107Z,14.50
2023-04-19T08:23:20.547Z,14.30
2023-04-19T08:25:51.042Z,14.20
2023-04-19T08:28:19.599Z,13.70
2023-04-19T08:30:47.941Z,12.70
2023-04-19T08:33:39.810Z,14.30
2023-04-19T08:37:13.731Z,15.00
2023-04-19T08:46:52.703Z,16.00
2023-04-19T08:50:08.588Z,16.40
2023-04-19T08:52:54.925Z,16.60
2023-04-19T08:55:36.575Z,14.10
2023-04-19T08:58:12.241Z,13.80
2023-04-19T09:04:26.365Z,14.90
2023-04-19T09:06:58.156Z,14.00
2023-04-19T09:12:17.979Z,15.90
2023-04-19T09:17:20.135Z,16.90
2023-04-19T09:19:50.958Z,16.20
2023-04-19T09:23:09.643Z,16.80
2023-04-19T09:25:59.215Z,15.20
2023-04-19T09:28:32.830Z,15.10
2023-04-19T09:31:38.811Z,13.50
2023-04-19T09:34:21.771Z,14.90
2023-04-19T09:37:13.175Z,16.00
2023-04-19T09:39:45.928Z,15.40
2023-04-19T09:42:15.759Z,13.10
2023-04-19T09:48:06.029Z,11.40
2023-04-19T09:51:05.833Z,11.40
2023-04-19T09:57:07.080Z,11.30
2023-04-19T09:59:35.465Z,11.40
2023-04-19T10:02:17.365Z,11.60
2023-04-19T10:08:59.992Z,11.00
2023-04-19T10:11:38.565Z,11.40
2023-04-19T10:14:23.314Z,11.50
2023-04-19T10:17:23.464Z,11.60
2023-04-19T10:20:06.997Z,11.50
2023-04-19T10:22:37.708Z,11.40
2023-04-19T10:25:11.051Z,11.10
2023-04-19T10:27:39.819Z,11.60
2023-04-19T10:30:18.580Z,11.40
2023-04-19T10:33:09.015Z,11.30
2023-04-19T10:35:46.840Z,11.70
2023-04-19T10:38:17.196Z,11.60
2023-04-19T10:41:13.640Z,11.70
2023-04-19T10:43:47.116Z,11.40
2023-04-19T10:46:37.407Z,11.80
2023-04-19T10:49:07.969Z,11.50
2023-04-19T10:51:42.469Z,11.70
2023-04-19T10:54:11.421Z,11.90
2023-04-19T10:57:19.658Z,12.60
2023-04-19T11:00:19.767Z,12.10
2023-04-19T11:02:50.808Z,12.00
2023-04-19T11:05:20.383Z,12.40
2023-04-19T11:08:04.936Z,11.90
2023-04-19T11:10:33.248Z,12.00
2023-04-19T11:13:02.064Z,12.50
2023-04-19T11:23:07.053Z,12.40
2023-04-19T11:25:52.608Z,12.70
2023-04-19T11:29:10.261Z,12.70
2023-04-19T11:31:40.081Z,12.70
2023-04-19T11:34:08.479Z,12.40
2023-04-19T11:36:48.177Z,12.50
2023-04-19T11:39:18.255Z,12.70
2023-04-19T11:41:52.525Z,12.30
2023-04-19T11:44:24.260Z,12.50
2023-04-19T11:50:49.606Z,12.10
2023-04-19T11:53:22.233Z,12.70
2023-04-19T11:56:12.110Z,12.60
2023-04-19T11:59:02.681Z,12.60
2023-04-19T12:01:36.259Z,12.40
2023-04-19T12:04:14.013Z,12.50
2023-04-19T12:07:02.801Z,12.80
2023-04-19T12:09:31.119Z,12.60
2023-04-19T12:11:59.279Z,12.70
2023-04-19T12:14:38.516Z,12.80
2023-04-19T12:17:25.352Z,12.80
2023-04-19T12:20:01.001Z,12.50
2023-04-19T12:22:29.153Z,12.40
2023-04-19T12:25:01.058Z,12.30
2023-04-19T12:27:37.536Z,12.50
2023-04-19T12:30:23.135Z,11.80
2023-04-19T12:32:55.671Z,12.60
2023-04-19T12:35:32.795Z,13.20
2023-04-19T12:38:03.989Z,13.10
2023-04-19T12:40:41.596Z,12.40
2023-04-19T12:43:17.322Z,13.00
2023-04-19T12:45:48.210Z,13.40
2023-04-19T12:52:22.553Z,12.90
2023-04-19T12:54:51.035Z,13.50
2023-04-19T12:57:19.090Z,13.20
2023-04-19T12:59:48.124Z,13.30
2023-04-19T13:03:07.933Z,13.30
2023-04-19T13:05:42.688Z,13.30
2023-04-19T13:08:12.124Z,13.60
2023-04-19T13:10:40.977Z,13.50
2023-04-19T13:13:11.556Z,13.50
2023-04-19T13:15:39.812Z,13.10
2023-04-19T13:18:07.955Z,13.20
2023-04-19T13:20:36.051Z,13.30
2023-04-19T13:23:10.985Z,13.60
2023-04-19T13:25:40.194Z,13.80
2023-04-19T13:28:08.495Z,13.60
2023-04-19T13:30:46.258Z,13.40
2023-04-19T13:33:15.683Z,13.70
2023-04-19T13:35:45.030Z,13.50
2023-04-19T13:38:14.548Z,14.30
2023-04-19T13:40:42.654Z,13.90
2023-04-19T13:46:16.406Z,13.60
2023-04-19T13:49:09.740Z,13.90
2023-04-19T13:51:59.902Z,13.10
2023-04-19T13:54:35.510Z,13.50
2023-04-19T13:57:46.608Z,14.00
2023-04-19T14:00:16.968Z,13.90
2023-04-19T14:02:58.331Z,14.30
2023-04-19T14:05:38.301Z,13.80
2023-04-19T14:08:06.784Z,12.60
2023-04-19T14:10:40.654Z,12.70
2023-04-19T14:13:08.732Z,12.70
2023-04-19T14:18:46.207Z,12.40
2023-04-19T14:21:19.979Z,12.40
2023-04-19T14:23:56.499Z,12.90
2023-04-19T14:26:27.519Z,13.40
2023-04-19T14:28:55.842Z,13.50
2023-04-19T14:31:25.782Z,13.20
2023-04-19T14:34:01.754Z,12.90
2023-04-19T14:36:38.515Z,12.90
2023-04-19T14:39:24.103Z,12.40
2023-04-19T14:42:24.684Z,12.80
2023-04-19T14:48:21.408Z,12.10
2023-04-19T14:51:17.180Z,12.80
2023-04-19T14:53:45.301Z,13.00
2023-04-19T14:56:15.069Z,12.40
2023-04-19T14:58:46.779Z,12.30
2023-04-19T15:01:19.878Z,12.40
2023-04-19T15:04:00.494Z,12.20
2023-04-19T15:06:40.781Z,12.50
2023-04-19T15:09:14.290Z,12.80
2023-04-19T15:15:26.898Z,12.60
2023-04-19T15:18:00.590Z,13.10
2023-04-19T15:20:30.406Z,12.10
2023-04-19T15:23:23.465Z,11.60
2023-04-19T15:28:56.608Z,11.60
2023-04-19T15:31:29.939Z,11.30
2023-04-19T15:34:03.293Z,11.30
2023-04-19T15:36:38.581Z,11.30
2023-04-19T15:39:06.842Z,11.70
2023-04-19T15:41:48.529Z,12.10
2023-04-19T15:44:16.629Z,12.20
2023-04-19T15:50:45.551Z,12.40
2023-04-19T15:53:17.626Z,12.70
2023-04-19T15:56:09.096Z,12.30
2023-04-19T16:04:33.023Z,11.90
2023-04-19T16:07:03.795Z,11.10
2023-04-19T16:09:32.009Z,11.10
2023-04-19T16:12:00.860Z,11.10
2023-04-19T16:14:42.894Z,11.00
2023-04-19T16:17:11.141Z,11.10
2023-04-19T16:19:42.638Z,11.40
2023-04-19T16:22:12.441Z,11.60
2023-04-19T16:27:25.479Z,11.80
2023-04-19T16:29:53.755Z,11.40
2023-04-19T16:32:23.296Z,11.90
2023-04-19T16:34:51.421Z,12.20
2023-04-19T16:37:25.796Z,12.00
2023-04-19T16:39:58.694Z,11.90
2023-04-19T16:42:31.792Z,11.70
2023-04-19T16:45:04.814Z,11.90
2023-04-19T16:47:33.107Z,11.50
2023-04-19T16:56:57.879Z,10.80
2023-04-19T16:59:27.776Z,10.80
2023-04-19T17:02:01.327Z,10.50
2023-04-19T17:04:33.644Z,10.60
2023-04-19T17:07:15.620Z,10.60
2023-04-19T17:09:45.066Z,10.50
2023-04-19T17:12:16.586Z,10.50
2023-04-19T17:14:48.381Z,10.40
2023-04-19T17:17:21.453Z,10.50
2023-04-19T17:19:53.620Z,10.50
2023-04-19T17:22:32.668Z,10.80
2023-04-19T17:25:01.403Z,10.90
2023-04-19T17:27:31.751Z,11.00
2023-04-19T17:29:59.918Z,10.80
2023-04-19T17:32:29.048Z,11.00
2023-04-19T17:34:57.152Z,10.90
2023-04-19T17:37:25.978Z,10.70
2023-04-19T17:40:07.449Z,10.60
2023-04-19T17:42:42.094Z,10.40
2023-04-19T17:49:01.234Z,10.20
2023-04-19T17:51:34.202Z,10.00
2023-04-19T17:54:44.244Z,9.90
2023-04-19T17:57:49.990Z,9.80
2023-04-19T18:01:05.818Z,9.70
2023-04-19T18:03:45.821Z,9.70
2023-04-19T18:06:16.394Z,9.50
2023-04-19T18:09:09.898Z,9.60
2023-04-19T18:14:48.335Z,9.50
2023-04-19T18:17:29.682Z,9.50
2023-04-19T18:20:13.570Z,9.60
2023-04-19T18:22:42.849Z,9.50
2023-04-19T18:25:34.721Z,9.40
2023-04-19T18:28:05.980Z,9.40
2023-04-19T18:31:13.481Z,9.40
2023-04-19T18:36:49.360Z,9.50
2023-04-19T18:39:23.193Z,9.40
2023-04-19T18:42:08.858Z,9.30
2023-04-19T18:45:11.672Z,9.40
2023-04-19T18:47:46.829Z,9.40
2023-04-19T18:50:38.190Z,9.30
2023-04-19T18:53:24.348Z,9.10
2023-04-19T18:56:12.150Z,9.00
2023-04-19T18:58:54.278Z,9.00
2023-04-19T19:01:23.840Z,9.00
2023-04-19T19:04:19.160Z,9.00
2023-04-19T19:06:48.391Z,9.00
2023-04-19T19:09:17.141Z,8.90
2023-04-19T19:12:13.953Z,8.80
2023-04-19T19:15:12.878Z,8.80
2023-04-19T19:22:27.749Z,8.70
2023-04-19T19:24:57.614Z,8.70
2023-04-19T19:27:26.357Z,8.60
2023-04-19T19:29:54.801Z,8.60
2023-04-19T19:36:00.597Z,8.40
2023-04-19T19:38:34.662Z,8.20
2023-04-19T19:43:40.499Z,8.20
2023-04-19T19:46:10.665Z,8.20
2023-04-19T19:48:42.683Z,8.10
2023-04-19T19:51:35.702Z,8.10
2023-04-19T19:54:06.237Z,8.00
2023-04-19T19:56:55.781Z,7.90
2023-04-19T19:59:32.143Z,7.90
2023-04-19T20:02:05.035Z,7.80
2023-04-19T20:04:35.239Z,7.80
2023-04-19T20:08:00.545Z,7.80
2023-04-19T20:10:31.292Z,7.70
2023-04-19T20:13:01.459Z,7.60
2023-04-19T20:15:31.075Z,7.60
2023-04-19T20:18:00.513Z,7.50
2023-04-19T20:20:32.348Z,7.50
2023-04-19T20:27:16.256Z,7.40
2023-04-19T20:30:15.913Z,7.30
2023-04-19T20:32:45.304Z,7.30
2023-04-19T20:35:13.475Z,7.30
2023-04-19T20:37:42.506Z,7.20
2023-04-19T20:40:21.546Z,7.30
2023-04-19T20:42:53.809Z,7.30
2023-04-19T20:45:22.214Z,7.30
2023-04-19T20:48:10.574Z,7.30
2023-04-19T20:50:39.439Z,7.20
2023-04-19T20:53:08.543Z,7.20
2023-04-19T20:55:40.092Z,7.20
2023-04-19T20:58:10.426Z,7.10
2023-04-19T21:00:38.615Z,7.00
2023-04-19T21:03:08.967Z,7.00
2023-04-19T21:05:44.967Z,7.00
2023-04-19T21:08:15.201Z,7.00
2023-04-19T21:10:49.727Z,7.00
2023-04-19T21:16:55.722Z,7.00
2023-04-19T21:19:28.276Z,7.00
2023-04-19T21:21:57.849Z,7.00
2023-04-19T21:24:27.346Z,7.10
2023-04-19T21:26:55.651Z,7.20
2023-04-19T21:29:26.324Z,7.20
2023-04-19T21:31:56.474Z,7.30
2023-04-19T21:34:24.632Z,7.30
2023-04-19T21:37:27.664Z,7.30
2023-04-19T21:40:02.459Z,7.20
2023-04-19T21:42:35.733Z,7.10
2023-04-19T21:45:26.964Z,7.00
2023-04-19T21:54:32.881Z,6.80
2023-04-19T21:57:07.242Z,6.80
2023-04-19T21:59:43.152Z,6.90
2023-04-19T22:02:14.285Z,6.80
2023-04-19T22:04:50.611Z,6.80
2023-04-19T22:07:19.592Z,6.90
2023-04-19T22:09:47.720Z,6.90
2023-04-19T22:12:15.974Z,7.00
2023-04-19T22:14:48.750Z,6.80
2023-04-19T22:17:19.794Z,6.70
2023-04-19T22:19:49.539Z,6.70
2023-04-19T22:22:25.040Z,6.70
2023-04-19T22:24:57.873Z,6.70
2023-04-19T22:27:26.740Z,6.60
2023-04-19T22:29:56.445Z,6.60
2023-04-19T22:32:29.498Z,6.60
2023-04-19T22:34:59.698Z,6.60
2023-04-19T22:37:27.765Z,6.60
2023-04-19T22:39:55.839Z,6.60
2023-04-19T22:42:25.495Z,6.70
2023-04-19T22:44:53.579Z,6.60
2023-04-19T22:47:23.344Z,6.60
2023-04-19T22:49:53.151Z,6.70
2023-04-19T22:52:22.935Z,6.50
2023-04-19T22:54:51.112Z,6.60
2023-04-19T22:57:20.992Z,6.60
2023-04-19T22:59:50.152Z,6.60
2023-04-19T23:02:19.815Z,6.60
2023-04-19T23:04:48.709Z,6.60
2023-04-19T23:07:21.923Z,6.60
2023-04-19T23:09:52.225Z,6.50
2023-04-19T23:12:22.920Z,6.60
2023-04-19T23:14:52.369Z,6.50
2023-04-19T23:17:20.611Z,6.50
2023-04-19T23:19:53.450Z,6.50
2023-04-19T23:22:25.366Z,6.40
2023-04-19T23:24:55.300Z,6.40
2023-04-19T23:27:29.667Z,6.50
2023-04-19T23:29:57.931Z,6.40
2023-04-19T23:32:26.374Z,6.40
2023-04-19T23:34:56.882Z,6.40
2023-04-19T23:37:27.757Z,6.30
2023-04-19T23:39:55.993Z,6.30
2023-04-19T23:42:26.147Z,6.50
2023-04-19T23:44:55.214Z,6.40
2023-04-19T23:47:23.441Z,6.50
2023-04-19T23:49:52.860Z,6.60
2023-04-19T23:52:22.894Z,6.60
2023-04-19T23:54:53.513Z,6.50
2023-04-19T23:57:21.550Z,6.50
2023-04-19T23:59:51.771Z,6.50
